Time;durP1;ratioP1;P1;durP2;ratioP2;P2;SDS_P1;SDS_P2;PMS_P1;PMS_P2;Temp;Humidity;BMP_temperature;BMP_pressure;BME280_temperature;BME280_humidity;BME280_pressure;Samples;Min_cycle;Max_cycle;Signal;HPM_P1;HPM_P2
2023/01/09 00:01:30;;;;;;;3.55;1.40;;;;;;;;;;5047198;28;20111;-81
2023/01/09 00:03:55;;;;;;;4.22;1.40;;;;;;;;;;5036522;28;20038;-82
2023/01/09 00:06:21;;;;;;;3.75;1.60;;;;;;;;;;5025807;28;20037;-82
2023/01/09 00:08:46;;;;;;;2.30;1.45;;;;;;;;;;5027608;28;20087;-82
2023/01/09 00:11:11;;;;;;;3.70;2.00;;;;;;;;;;5045404;28;20059;-82
2023/01/09 00:13:37;;;;;;;5.05;1.83;;;;;;;;;;5045384;28;20021;-81
2023/01/09 00:16:04;;;;;;;3.25;1.30;;;;;;;;;;5045064;28;20049;-81
2023/01/09 00:18:29;;;;;;;5.28;1.23;;;;;;;;;;5047339;28;20173;-81
2023/01/09 00:20:58;;;;;;;3.03;1.42;;;;;;;;;;5046313;28;20533;-81
2023/01/09 00:23:24;;;;;;;6.38;2.13;;;;;;;;;;5032511;28;20037;-81
2023/01/09 00:25:49;;;;;;;7.25;2.30;;;;;;;;;;5025327;28;20040;-81
2023/01/09 00:28:14;;;;;;;5.05;1.65;;;;;;;;;;5027354;28;20088;-80
2023/01/09 00:30:39;;;;;;;6.25;1.63;;;;;;;;;;5025130;28;20639;-81
2023/01/09 00:33:05;;;;;;;4.60;1.42;;;;;;;;;;5026918;28;20071;-82
2023/01/09 00:35:30;;;;;;;1.90;1.15;;;;;;;;;;5023258;28;20049;-82
2023/01/09 00:37:56;;;;;;;4.00;1.10;;;;;;;;;;5020453;28;20616;-81
2023/01/09 00:40:21;;;;;;;1.83;1.02;;;;;;;;;;5025779;28;20095;-81
2023/01/09 00:42:51;;;;;;;1.23;1.13;;;;;;;;;;5026875;28;20041;-82
2023/01/09 00:45:22;;;;;;;4.45;1.17;;;;;;;;;;5012436;28;20045;-81
2023/01/09 00:47:50;;;;;;;2.67;1.40;;;;;;;;;;5022403;28;20129;-81
2023/01/09 00:50:23;;;;;;;2.35;1.10;;;;;;;;;;5026573;28;20495;-80
2023/01/09 00:52:50;;;;;;;2.35;1.00;;;;;;;;;;5025040;28;20112;-80
2023/01/09 00:55:16;;;;;;;3.83;1.13;;;;;;;;;;5025128;28;20549;-81
2023/01/09 00:57:41;;;;;;;1.65;0.73;;;;;;;;;;5024617;28;20053;-80
2023/01/09 01:00:08;;;;;;;2.75;0.80;;;;;;;;;;5026462;28;20045;-82
2023/01/09 01:02:34;;;;;;;1.75;0.73;;;;;;;;;;5024753;28;20403;-82
2023/01/09 01:07:43;;;;;;;;;;;;;;;;;;5027039;28;20123;-81
2023/01/09 01:10:12;;;;;;;2.42;0.93;;;;;;;;;;5044138;28;19913;-81
2023/01/09 01:12:38;;;;;;;4.00;0.82;;;;;;;;;;5044375;28;20044;-80
2023/01/09 01:15:06;;;;;;;2.10;0.98;;;;;;;;;;5037125;28;20043;-81
2023/01/09 01:17:36;;;;;;;4.32;1.20;;;;;;;;;;5025777;28;20041;-81
2023/01/09 01:20:03;;;;;;;2.90;1.10;;;;;;;;;;5025235;28;20025;-82
2023/01/09 01:22:28;;;;;;;2.35;1.05;;;;;;;;;;5025505;28;20022;-81
2023/01/09 01:24:53;;;;;;;1.52;1.00;;;;;;;;;;5025089;28;20052;-81
2023/01/09 01:27:19;;;;;;;4.68;1.30;;;;;;;;;;5025070;28;20034;-82
2023/01/09 01:29:44;;;;;;;3.17;0.70;;;;;;;;;;5026007;28;20566;-81
2023/01/09 01:32:10;;;;;;;1.88;0.93;;;;;;;;;;5025848;28;20017;-82
2023/01/09 01:34:36;;;;;;;2.08;0.80;;;;;;;;;;5025704;28;20017;-81
2023/01/09 01:37:01;;;;;;;4.82;0.98;;;;;;;;;;5006923;28;20042;-81
2023/01/09 01:39:26;;;;;;;3.25;1.00;;;;;;;;;;5004970;28;20180;-81
2023/01/09 01:41:52;;;;;;;3.03;0.70;;;;;;;;;;5013449;28;20065;-82
2023/01/09 01:44:54;;;;;;;3.33;0.90;;;;;;;;;;5024303;28;20112;-82
2023/01/09 01:47:22;;;;;;;0.50;0.50;;;;;;;;;;5023884;28;20044;-81
2023/01/09 01:49:48;;;;;;;1.20;0.68;;;;;;;;;;5025086;28;20037;-82
2023/01/09 01:52:14;;;;;;;1.05;0.63;;;;;;;;;;5023801;28;20063;-81
2023/01/09 01:54:40;;;;;;;1.98;0.90;;;;;;;;;;5025788;28;20139;-81
2023/01/09 01:57:06;;;;;;;1.55;0.70;;;;;;;;;;5025509;28;20149;-82
2023/01/09 01:59:41;;;;;;;3.85;1.00;;;;;;;;;;5027416;28;20197;-82
2023/01/09 02:02:08;;;;;;;2.33;0.93;;;;;;;;;;5021095;28;20037;-82
2023/01/09 02:04:38;;;;;;;4.68;1.05;;;;;;;;;;5026952;28;20049;-82
2023/01/09 02:07:07;;;;;;;3.83;0.88;;;;;;;;;;5045495;28;20102;-81
2023/01/09 02:09:33;;;;;;;3.05;0.82;;;;;;;;;;5034101;28;20461;-81
2023/01/09 02:11:59;;;;;;;4.85;0.75;;;;;;;;;;5024564;28;20029;-81
2023/01/09 02:14:28;;;;;;;1.23;0.90;;;;;;;;;;5028696;28;20025;-81
2023/01/09 02:16:56;;;;;;;1.45;0.70;;;;;;;;;;5028946;28;20069;-82
2023/01/09 02:19:59;;;;;;;3.33;0.63;;;;;;;;;;5029388;28;20538;-81
2023/01/09 02:23:13;;;;;;;1.20;0.50;;;;;;;;;;5027731;28;20053;-81
2023/01/09 02:26:05;;;;;;;2.00;0.80;;;;;;;;;;5009935;28;20410;-81
2023/01/09 02:29:03;;;;;;;5.47;0.85;;;;;;;;;;5048987;28;20033;-81
2023/01/09 02:31:56;;;;;;;2.50;0.73;;;;;;;;;;5045403;28;20533;-81
2023/01/09 02:34:26;;;;;;;2.80;0.50;;;;;;;;;;5046253;28;20113;-81
2023/01/09 02:37:05;;;;;;;0.88;0.63;;;;;;;;;;5046878;28;20039;-81
2023/01/09 02:39:55;;;;;;;9.45;0.90;;;;;;;;;;5044721;28;20041;-81
2023/01/09 02:42:22;;;;;;;6.20;0.60;;;;;;;;;;5033970;28;20044;-81
2023/01/09 02:44:48;;;;;;;3.95;0.93;;;;;;;;;;5021567;28;20075;-82
2023/01/09 02:47:13;;;;;;;0.45;0.40;;;;;;;;;;5027921;28;20009;-82
2023/01/09 02:49:41;;;;;;;3.65;0.70;;;;;;;;;;5027862;28;20032;-81
2023/01/09 02:52:38;;;;;;;1.75;0.60;;;;;;;;;;5028684;28;20519;-80
2023/01/09 02:55:49;;;;;;;2.40;0.65;;;;;;;;;;5028406;28;20030;-81
2023/01/09 02:58:20;;;;;;;6.03;0.90;;;;;;;;;;5028894;28;20061;-81
2023/01/09 03:01:18;;;;;;;2.30;0.73;;;;;;;;;;5027276;28;20041;-81
2023/01/09 03:03:47;;;;;;;2.95;0.63;;;;;;;;;;5007360;28;20133;-81
2023/01/09 03:06:24;;;;;;;0.38;0.38;;;;;;;;;;5007354;28;20046;-81
2023/01/09 03:08:54;;;;;;;4.43;0.77;;;;;;;;;;5007618;28;20088;-81
2023/01/09 03:11:20;;;;;;;8.52;0.98;;;;;;;;;;5014882;28;20518;-81
2023/01/09 03:13:52;;;;;;;3.08;1.00;;;;;;;;;;5027139;28;20018;-81
2023/01/09 03:16:26;;;;;;;0.90;0.60;;;;;;;;;;5028230;28;20079;-82
2023/01/09 03:18:53;;;;;;;1.10;0.55;;;;;;;;;;5027981;28;20103;-81
2023/01/09 03:21:20;;;;;;;4.07;0.77;;;;;;;;;;5031554;28;20025;-81
2023/01/09 03:23:54;;;;;;;1.75;0.82;;;;;;;;;;5030343;28;20407;-82
2023/01/09 03:26:20;;;;;;;0.98;0.60;;;;;;;;;;5027094;28;20049;-81
2023/01/09 03:28:47;;;;;;;3.80;1.27;;;;;;;;;;5029812;28;20067;-81
2023/01/09 03:31:12;;;;;;;3.28;0.90;;;;;;;;;;5029491;28;20029;-82
2023/01/09 03:33:38;;;;;;;3.42;0.90;;;;;;;;;;5023734;28;20032;-81
2023/01/09 03:36:04;;;;;;;3.53;1.00;;;;;;;;;;5007894;28;20558;-81
2023/01/09 03:38:29;;;;;;;3.75;1.00;;;;;;;;;;5006618;28;20030;-82
2023/01/09 03:40:55;;;;;;;8.25;1.23;;;;;;;;;;5009696;28;20537;-81
2023/01/09 03:43:20;;;;;;;3.97;1.00;;;;;;;;;;5005130;28;20034;-81
2023/01/09 03:45:45;;;;;;;2.08;0.82;;;;;;;;;;5007535;28;20077;-82
2023/01/09 03:48:11;;;;;;;5.45;0.93;;;;;;;;;;5008039;28;20034;-81
2023/01/09 03:50:36;;;;;;;3.97;0.75;;;;;;;;;;5007023;28;20033;-81
2023/01/09 03:53:01;;;;;;;2.67;0.75;;;;;;;;;;5026989;28;20609;-81
2023/01/09 03:55:27;;;;;;;2.88;1.30;;;;;;;;;;5026097;28;20056;-81
2023/01/09 03:57:52;;;;;;;7.57;1.02;;;;;;;;;;5026872;28;20025;-81
2023/01/09 04:00:21;;;;;;;4.80;1.20;;;;;;;;;;5025369;28;20175;-81
2023/01/09 04:02:47;;;;;;;1.83;0.43;;;;;;;;;;5027155;28;20068;-81
2023/01/09 04:05:12;;;;;;;10.98;1.27;;;;;;;;;;5011425;28;20053;-82
2023/01/09 04:07:38;;;;;;;7.70;1.55;;;;;;;;;;5007722;28;20018;-81
2023/01/09 04:10:05;;;;;;;5.30;1.30;;;;;;;;;;5007434;28;20041;-82
2023/01/09 04:12:31;;;;;;;5.88;1.10;;;;;;;;;;5013317;28;20133;-80
2023/01/09 04:14:56;;;;;;;1.75;0.68;;;;;;;;;;5005428;28;20500;-81
2023/01/09 04:17:21;;;;;;;5.15;0.88;;;;;;;;;;5005255;28;20045;-81
2023/01/09 04:19:47;;;;;;;5.25;1.70;;;;;;;;;;5007567;28;20037;-81
2023/01/09 04:22:12;;;;;;;6.10;0.95;;;;;;;;;;5025433;28;20055;-81
2023/01/09 04:24:37;;;;;;;8.40;1.42;;;;;;;;;;5025170;28;20079;-80
2023/01/09 04:27:03;;;;;;;9.55;1.15;;;;;;;;;;5024482;28;20029;-80
2023/01/09 04:29:28;;;;;;;9.52;1.27;;;;;;;;;;5026667;28;20117;-80
2023/01/09 04:31:53;;;;;;;10.88;1.20;;;;;;;;;;5026944;28;20025;-81
2023/01/09 04:34:24;;;;;;;4.07;1.25;;;;;;;;;;5025417;28;20753;-81
2023/01/09 04:36:49;;;;;;;6.53;0.90;;;;;;;;;;5024868;28;20045;-81
2023/01/09 04:39:15;;;;;;;9.30;1.08;;;;;;;;;;5021680;28;20033;-81
2023/01/09 04:41:49;;;;;;;7.10;1.48;;;;;;;;;;5024590;28;20064;-81
2023/01/09 04:44:15;;;;;;;5.20;1.52;;;;;;;;;;5025018;28;20025;-81
2023/01/09 04:46:41;;;;;;;5.57;1.20;;;;;;;;;;5025152;28;20028;-81
2023/01/09 04:49:06;;;;;;;4.35;1.20;;;;;;;;;;5026220;28;20034;-81
2023/01/09 04:51:31;;;;;;;2.70;1.17;;;;;;;;;;5023014;28;20072;-82
2023/01/09 04:53:57;;;;;;;3.05;1.13;;;;;;;;;;5025131;28;20117;-81
2023/01/09 04:56:22;;;;;;;3.22;1.13;;;;;;;;;;5025644;28;20034;-81
2023/01/09 04:58:47;;;;;;;2.85;1.05;;;;;;;;;;5026819;28;20386;-81
2023/01/09 05:01:13;;;;;;;5.28;1.13;;;;;;;;;;5024362;28;20061;-81
2023/01/09 05:03:38;;;;;;;1.95;0.85;;;;;;;;;;5022872;28;20033;-80
2023/01/09 05:06:03;;;;;;;6.20;1.13;;;;;;;;;;5007696;28;20030;-81
2023/01/09 05:08:29;;;;;;;8.77;1.40;;;;;;;;;;5005128;28;20033;-80
2023/01/09 05:10:54;;;;;;;5.40;1.30;;;;;;;;;;5022413;28;20462;-81
2023/01/09 05:13:19;;;;;;;12.13;1.10;;;;;;;;;;5031027;28;20380;-81
2023/01/09 05:15:44;;;;;;;6.50;1.25;;;;;;;;;;5006207;28;20030;-81
2023/01/09 05:18:10;;;;;;;5.95;0.98;;;;;;;;;;5004604;28;20130;-80
2023/01/09 05:20:36;;;;;;;3.60;1.20;;;;;;;;;;5004637;28;20060;-81
2023/01/09 05:23:01;;;;;;;3.70;0.90;;;;;;;;;;5006232;28;20113;-81
2023/01/09 05:25:27;;;;;;;4.53;1.35;;;;;;;;;;5012656;28;20812;-81
2023/01/09 05:27:52;;;;;;;1.48;0.93;;;;;;;;;;5023900;28;20128;-82
2023/01/09 05:30:17;;;;;;;4.13;1.25;;;;;;;;;;5023989;28;20037;-82
2023/01/09 05:32:43;;;;;;;4.70;1.00;;;;;;;;;;5026226;28;20041;-82
2023/01/09 05:35:08;;;;;;;2.53;0.80;;;;;;;;;;5029761;28;20025;-82
2023/01/09 05:37:33;;;;;;;3.13;0.85;;;;;;;;;;5028719;28;20433;-82
2023/01/09 05:39:59;;;;;;;3.35;0.60;;;;;;;;;;5029300;28;20422;-82
2023/01/09 05:42:24;;;;;;;2.25;0.80;;;;;;;;;;5026819;28;20041;-81
2023/01/09 05:44:49;;;;;;;4.85;1.00;;;;;;;;;;5026881;28;20041;-81
2023/01/09 05:47:15;;;;;;;2.22;0.60;;;;;;;;;;5028171;28;20010;-81
2023/01/09 05:49:40;;;;;;;1.83;0.90;;;;;;;;;;5028415;28;20053;-81
2023/01/09 05:52:07;;;;;;;3.90;0.82;;;;;;;;;;5029384;28;20029;-81
2023/01/09 05:54:32;;;;;;;6.82;1.00;;;;;;;;;;5027943;28;20037;-81
2023/01/09 05:56:58;;;;;;;5.28;0.82;;;;;;;;;;5030173;28;20033;-81
2023/01/09 05:59:23;;;;;;;2.92;0.85;;;;;;;;;;5028439;28;20391;-80
2023/01/09 06:01:48;;;;;;;4.78;0.90;;;;;;;;;;5017097;28;20506;-80
2023/01/09 06:04:14;;;;;;;2.63;0.95;;;;;;;;;;5023995;28;20095;-80
2023/01/09 06:06:39;;;;;;;1.73;0.88;;;;;;;;;;5021785;28;20434;-80
2023/01/09 06:09:05;;;;;;;4.20;1.27;;;;;;;;;;5011719;28;20038;-82
2023/01/09 06:11:34;;;;;;;1.55;0.50;;;;;;;;;;5009649;28;20041;-83
2023/01/09 06:14:00;;;;;;;3.90;1.15;;;;;;;;;;5011419;28;20022;-82
2023/01/09 06:16:25;;;;;;;2.83;0.80;;;;;;;;;;5005162;28;20419;-83
2023/01/09 06:18:50;;;;;;;3.38;1.20;;;;;;;;;;5005197;28;20037;-83
2023/01/09 06:21:16;;;;;;;4.60;0.90;;;;;;;;;;5003957;28;20041;-83
2023/01/09 06:23:41;;;;;;;3.10;0.55;;;;;;;;;;5012327;28;20030;-83
2023/01/09 06:26:06;;;;;;;3.90;0.88;;;;;;;;;;5030379;28;20600;-83
2023/01/09 06:28:32;;;;;;;4.25;1.33;;;;;;;;;;5013649;28;20396;-83
2023/01/09 06:30:57;;;;;;;3.45;0.57;;;;;;;;;;5030498;28;20485;-83
2023/01/09 06:33:22;;;;;;;4.50;1.10;;;;;;;;;;5012916;28;20044;-83
2023/01/09 06:35:48;;;;;;;5.82;1.23;;;;;;;;;;5013688;28;20507;-83
2023/01/09 06:38:13;;;;;;;4.82;1.30;;;;;;;;;;4993662;28;20025;-83
2023/01/09 06:40:38;;;;;;;0.65;0.50;;;;;;;;;;4993819;28;20029;-84
2023/01/09 06:43:04;;;;;;;3.05;0.88;;;;;;;;;;4991853;28;20034;-83
2023/01/09 06:45:29;;;;;;;2.30;0.80;;;;;;;;;;5008431;28;20038;-83
2023/01/09 06:47:54;;;;;;;3.33;1.00;;;;;;;;;;4992475;28;20046;-83
2023/01/09 06:50:20;;;;;;;1.35;0.77;;;;;;;;;;4991541;28;20100;-83
2023/01/09 06:52:45;;;;;;;4.30;0.80;;;;;;;;;;4992410;28;20117;-83
2023/01/09 06:55:11;;;;;;;4.88;1.15;;;;;;;;;;4991774;28;20062;-83
2023/01/09 06:57:36;;;;;;;4.13;0.80;;;;;;;;;;5008931;28;20038;-84
2023/01/09 07:00:02;;;;;;;4.10;1.10;;;;;;;;;;4991585;28;20050;-83
2023/01/09 07:02:27;;;;;;;3.08;0.90;;;;;;;;;;4992472;28;20047;-83
2023/01/09 07:04:53;;;;;;;2.92;0.80;;;;;;;;;;5010991;28;20029;-83
2023/01/09 07:07:19;;;;;;;2.35;0.88;;;;;;;;;;5009924;28;20064;-83
2023/01/09 07:09:44;;;;;;;2.03;0.73;;;;;;;;;;4996079;28;20052;-83
2023/01/09 07:12:09;;;;;;;1.52;0.85;;;;;;;;;;5011994;28;20038;-83
2023/01/09 07:14:35;;;;;;;2.85;1.08;;;;;;;;;;4979784;28;20052;-84
2023/01/09 07:17:00;;;;;;;4.43;1.00;;;;;;;;;;5009622;28;20042;-83
2023/01/09 07:19:26;;;;;;;1.70;0.65;;;;;;;;;;5011984;28;20432;-84
2023/01/09 07:21:52;;;;;;;7.57;2.10;;;;;;;;;;5012000;28;20045;-84
2023/01/09 07:24:17;;;;;;;2.90;1.40;;;;;;;;;;4992154;28;20065;-83
2023/01/09 07:26:43;;;;;;;3.90;1.40;;;;;;;;;;4992626;28;20042;-83
2023/01/09 07:29:08;;;;;;;3.38;0.80;;;;;;;;;;4992541;28;20033;-83
2023/01/09 07:31:33;;;;;;;5.97;1.25;;;;;;;;;;4993553;28;20025;-82
2023/01/09 07:33:58;;;;;;;3.55;1.08;;;;;;;;;;4991847;28;20038;-83
2023/01/09 07:36:24;;;;;;;3.08;1.00;;;;;;;;;;5010347;28;20945;-83
2023/01/09 07:38:49;;;;;;;1.67;0.90;;;;;;;;;;5009643;28;20049;-83
2023/01/09 07:41:15;;;;;;;3.22;0.90;;;;;;;;;;5008834;28;20109;-83
2023/01/09 07:43:40;;;;;;;5.40;1.23;;;;;;;;;;4992329;28;20026;-83
2023/01/09 07:46:05;;;;;;;1.05;0.60;;;;;;;;;;4992279;28;20034;-82
2023/01/09 07:48:31;;;;;;;0.55;0.47;;;;;;;;;;4991437;28;20056;-82
2023/01/09 07:50:56;;;;;;;1.95;0.88;;;;;;;;;;4990729;28;20045;-83
2023/01/09 07:53:22;;;;;;;2.42;0.73;;;;;;;;;;4990715;28;20211;-82
2023/01/09 07:55:47;;;;;;;1.85;0.68;;;;;;;;;;5007464;28;20034;-82
2023/01/09 07:58:12;;;;;;;2.10;0.73;;;;;;;;;;5008340;28;20038;-82
2023/01/09 08:00:38;;;;;;;1.95;0.60;;;;;;;;;;5008755;28;20053;-82
2023/01/09 08:03:03;;;;;;;6.93;1.00;;;;;;;;;;5005406;28;20105;-83
2023/01/09 08:05:29;;;;;;;1.05;0.57;;;;;;;;;;4994291;28;20080;-83
2023/01/09 08:07:54;;;;;;;3.60;0.98;;;;;;;;;;5009193;28;20029;-83
2023/01/09 08:10:19;;;;;;;0.70;0.50;;;;;;;;;;4990382;28;20045;-83
2023/01/09 08:12:46;;;;;;;2.50;0.98;;;;;;;;;;5003327;28;20052;-83
2023/01/09 08:15:11;;;;;;;1.17;0.68;;;;;;;;;;5030389;28;20587;-83
2023/01/09 08:17:39;;;;;;;5.00;0.90;;;;;;;;;;5074604;28;20036;-83
2023/01/09 08:20:05;;;;;;;0.50;0.32;;;;;;;;;;5068090;28;20028;-83
2023/01/09 08:22:30;;;;;;;2.65;0.70;;;;;;;;;;5065149;28;20038;-82
2023/01/09 08:24:56;;;;;;;1.55;0.68;;;;;;;;;;5047500;28;20094;-83
2023/01/09 08:27:21;;;;;;;3.42;0.50;;;;;;;;;;5032464;28;20068;-83
2023/01/09 08:29:46;;;;;;;0.55;0.55;;;;;;;;;;5025211;28;20554;-82
2023/01/09 08:32:11;;;;;;;2.22;0.47;;;;;;;;;;5026141;28;20027;-77
2023/01/09 08:34:37;;;;;;;0.28;0.20;;;;;;;;;;5026250;28;20087;-78
2023/01/09 08:37:02;;;;;;;0.82;0.40;;;;;;;;;;5024185;28;20052;-77
2023/01/09 08:39:27;;;;;;;0.73;0.60;;;;;;;;;;5023872;28;20041;-77
2023/01/09 08:47:22;;;;;;;0.63;0.40;;;;;;;;;;5028044;28;20067;-78
2023/01/09 08:49:48;;;;;;;0.73;0.57;;;;;;;;;;5044933;28;20037;-78
2023/01/09 08:52:13;;;;;;;0.60;0.43;;;;;;;;;;5044391;28;20048;-78
2023/01/09 08:54:39;;;;;;;0.32;0.30;;;;;;;;;;5043448;28;20045;-77
2023/01/09 08:57:05;;;;;;;0.38;0.38;;;;;;;;;;5033018;28;20037;-78
2023/01/09 08:59:30;;;;;;;0.55;0.50;;;;;;;;;;5020971;28;20037;-77
2023/01/09 09:01:57;;;;;;;1.00;0.65;;;;;;;;;;5022551;28;20033;-78
2023/01/09 09:04:22;;;;;;;0.40;0.40;;;;;;;;;;5010641;28;20041;-77
2023/01/09 09:06:48;;;;;;;0.47;0.47;;;;;;;;;;5002965;28;20042;-76
2023/01/09 09:09:13;;;;;;;2.97;0.50;;;;;;;;;;5002994;28;20566;-77
2023/01/09 09:11:39;;;;;;;0.40;0.40;;;;;;;;;;5003895;28;20044;-78
2023/01/09 09:16:48;;;;;;;0.50;0.50;;;;;;;;;;5005222;28;20092;-78
2023/01/09 09:19:15;;;;;;;0.68;0.57;;;;;;;;;;4987645;28;20139;-78
2023/01/09 09:21:40;;;;;;;0.73;0.47;;;;;;;;;;5004118;28;20478;-77
2023/01/09 09:24:06;;;;;;;2.33;0.70;;;;;;;;;;5005189;28;20074;-77
2023/01/09 09:26:31;;;;;;;0.40;0.40;;;;;;;;;;5004791;28;20038;-78
2023/01/09 09:28:57;;;;;;;0.43;0.40;;;;;;;;;;5005122;28;20042;-78
2023/01/09 09:31:23;;;;;;;0.50;0.30;;;;;;;;;;5005357;28;20697;-77
2023/01/09 09:33:48;;;;;;;1.67;0.55;;;;;;;;;;4987095;28;20033;-77
2023/01/09 09:36:13;;;;;;;2.85;0.85;;;;;;;;;;4987505;28;20037;-78
2023/01/09 09:38:38;;;;;;;1.52;0.55;;;;;;;;;;4986559;28;20077;-78
2023/01/09 09:44:43;;;;;;;0.70;0.50;;;;;;;;;;5004023;28;20072;-78
2023/01/09 09:47:46;;;;;;;1.48;0.50;;;;;;;;;;4950759;28;20084;-78
2023/01/09 09:50:20;;;;;;;0.30;0.30;;;;;;;;;;4984934;28;20023;-78
2023/01/09 09:53:17;;;;;;;4.50;0.50;;;;;;;;;;4984914;28;20345;-78
2023/01/09 09:55:45;;;;;;;1.33;0.70;;;;;;;;;;4996323;28;20042;-78
2023/01/09 09:58:20;;;;;;;1.08;0.50;;;;;;;;;;5003681;28;20051;-78
2023/01/09 10:00:47;;;;;;;1.85;0.63;;;;;;;;;;5004206;28;20065;-78
2023/01/09 10:03:29;;;;;;;3.10;1.00;;;;;;;;;;4996132;28;20125;-78
2023/01/09 10:05:57;;;;;;;0.95;0.65;;;;;;;;;;5005679;28;20037;-78
2023/01/09 10:08:47;;;;;;;0.93;0.68;;;;;;;;;;5002679;28;20060;-78
2023/01/09 10:11:31;;;;;;;1.50;0.60;;;;;;;;;;5003665;28;20029;-77
2023/01/09 10:14:05;;;;;;;1.20;0.70;;;;;;;;;;4978147;28;20117;-78
2023/01/09 10:17:22;;;;;;;0.75;0.63;;;;;;;;;;4991431;28;20050;-78
2023/01/09 10:19:56;;;;;;;1.13;0.73;;;;;;;;;;5023209;28;20073;-78
2023/01/09 10:22:52;;;;;;;1.90;0.63;;;;;;;;;;5042217;28;20533;-78
2023/01/09 10:25:21;;;;;;;0.98;0.57;;;;;;;;;;5051791;28;20029;-78
2023/01/09 10:28:04;;;;;;;2.08;0.63;;;;;;;;;;5066914;28;20186;-78
2023/01/09 10:30:38;;;;;;;0.55;0.50;;;;;;;;;;5067666;28;20499;-77
2023/01/09 10:33:06;;;;;;;0.52;0.50;;;;;;;;;;5041259;28;20041;-78
2023/01/09 10:36:03;;;;;;;0.80;0.63;;;;;;;;;;5049581;28;20033;-78
2023/01/09 10:38:33;;;;;;;0.65;0.63;;;;;;;;;;5061386;28;20040;-78
2023/01/09 10:41:05;;;;;;;1.60;0.47;;;;;;;;;;5046491;28;20513;-78
2023/01/09 10:43:45;;;;;;;0.90;0.60;;;;;;;;;;5045407;28;20414;-78
2023/01/09 10:46:18;;;;;;;1.63;0.60;;;;;;;;;;5045783;28;20032;-78
2023/01/09 10:48:46;;;;;;;;;;;;;;;;;;5045856;28;20035;-77
2023/01/09 10:51:22;;;;;;;1.98;0.57;;;;;;;;;;5045118;28;19913;-78
2023/01/09 10:53:51;;;;;;;1.13;0.95;;;;;;;;;;5047560;28;20124;-78
2023/01/09 10:56:31;;;;;;;1.02;0.60;;;;;;;;;;5044600;28;20103;-78
2023/01/09 10:58:56;;;;;;;0.68;0.68;;;;;;;;;;5047081;28;20633;-78
2023/01/09 11:01:36;;;;;;;1.58;0.82;;;;;;;;;;5045210;28;20047;-78
2023/01/09 11:04:02;;;;;;;2.00;0.82;;;;;;;;;;5032852;28;20514;-77
2023/01/09 11:06:44;;;;;;;0.68;0.55;;;;;;;;;;5026130;28;20051;-78
2023/01/09 11:09:09;;;;;;;1.48;0.85;;;;;;;;;;5024484;28;20048;-78
2023/01/09 11:11:39;;;;;;;0.60;0.60;;;;;;;;;;5040549;28;20041;-78
2023/01/09 11:14:10;;;;;;;1.65;0.82;;;;;;;;;;5045353;28;20025;-78
2023/01/09 11:16:36;;;;;;;3.05;0.90;;;;;;;;;;5034013;28;20059;-78
2023/01/09 11:19:01;;;;;;;1.63;1.02;;;;;;;;;;5036208;28;20037;-78
2023/01/09 11:21:29;;;;;;;1.58;0.85;;;;;;;;;;5025685;28;20068;-78
2023/01/09 11:23:55;;;;;;;4.00;0.77;;;;;;;;;;5044656;28;20099;-77
2023/01/09 11:26:27;;;;;;;1.80;0.95;;;;;;;;;;5040829;28;20111;-77
2023/01/09 11:29:10;;;;;;;0.82;0.70;;;;;;;;;;5045829;28;20085;-78
2023/01/09 11:31:37;;;;;;;5.97;1.05;;;;;;;;;;5065973;28;20113;-77
2023/01/09 11:34:03;;;;;;;4.40;1.20;;;;;;;;;;5066369;28;20468;-77
2023/01/09 11:36:29;;;;;;;2.65;0.77;;;;;;;;;;5066085;28;20040;-78
2023/01/09 11:38:59;;;;;;;2.42;0.80;;;;;;;;;;5057148;28;20052;-78
2023/01/09 11:41:33;;;;;;;4.10;1.35;;;;;;;;;;5038187;28;20070;-77
2023/01/09 11:43:59;;;;;;;3.60;0.93;;;;;;;;;;5045998;28;20107;-77
2023/01/09 11:46:29;;;;;;;4.82;1.10;;;;;;;;;;5035443;28;20036;-77
2023/01/09 11:48:56;;;;;;;0.85;0.75;;;;;;;;;;5035989;28;20116;-77
2023/01/09 11:51:27;;;;;;;2.17;0.80;;;;;;;;;;5028771;28;20096;-77
2023/01/09 11:54:26;;;;;;;3.10;1.00;;;;;;;;;;5023081;28;20041;-77
2023/01/09 11:56:51;;;;;;;2.25;1.45;;;;;;;;;;5025269;28;20038;-77
2023/01/09 11:59:20;;;;;;;4.95;1.13;;;;;;;;;;5024713;28;20036;-77
2023/01/09 12:01:59;;;;;;;2.72;1.10;;;;;;;;;;5024689;28;20026;-78
2023/01/09 12:04:36;;;;;;;2.20;0.93;;;;;;;;;;5009673;28;20045;-77
2023/01/09 12:07:32;;;;;;;3.83;1.13;;;;;;;;;;5005962;28;20038;-77
2023/01/09 12:10:06;;;;;;;3.15;1.23;;;;;;;;;;5004251;28;20038;-78
2023/01/09 12:12:47;;;;;;;5.32;1.38;;;;;;;;;;5005585;28;20073;-77
2023/01/09 12:15:22;;;;;;;2.65;1.10;;;;;;;;;;5005316;28;20038;-77
2023/01/09 12:17:59;;;;;;;3.22;1.17;;;;;;;;;;5004354;28;20038;-77
2023/01/09 12:20:43;;;;;;;2.05;1.02;;;;;;;;;;5004393;28;20698;-78
2023/01/09 12:23:34;;;;;;;1.45;1.08;;;;;;;;;;5005520;28;20050;-77
2023/01/09 12:26:15;;;;;;;1.35;0.98;;;;;;;;;;5004497;28;20044;-78
2023/01/09 12:29:03;;;;;;;2.03;1.20;;;;;;;;;;5004224;28;20763;-78
2023/01/09 12:31:46;;;;;;;2.75;1.08;;;;;;;;;;5003798;28;20077;-78
2023/01/09 12:34:50;;;;;;;2.38;1.20;;;;;;;;;;5023089;28;20053;-79
2023/01/09 12:37:49;;;;;;;3.07;1.33;;;;;;;;;;4992782;28;20514;-78
2023/01/09 12:40:14;;;;;;;6.03;1.70;;;;;;;;;;5007123;28;20265;-78
2023/01/09 12:43:09;;;;;;;3.67;1.35;;;;;;;;;;5002911;28;20038;-78
2023/01/09 12:45:58;;;;;;;4.30;1.38;;;;;;;;;;4986803;28;20049;-77
2023/01/09 12:48:45;;;;;;;3.10;1.33;;;;;;;;;;5023725;28;20040;-77
2023/01/09 12:51:23;;;;;;;3.90;1.17;;;;;;;;;;5023214;28;20045;-78
2023/01/09 12:53:56;;;;;;;2.50;1.10;;;;;;;;;;5022850;28;20110;-78
2023/01/09 12:56:31;;;;;;;4.05;1.10;;;;;;;;;;5025994;28;20052;-78
2023/01/09 12:59:00;;;;;;;5.18;1.40;;;;;;;;;;5022276;28;20120;-78
2023/01/09 13:01:33;;;;;;;3.65;1.40;;;;;;;;;;5023424;28;20068;-78
2023/01/09 13:04:07;;;;;;;5.82;1.10;;;;;;;;;;5034565;28;20044;-78
2023/01/09 13:06:35;;;;;;;3.53;1.00;;;;;;;;;;5042328;28;20446;-78
2023/01/09 13:09:16;;;;;;;2.35;1.02;;;;;;;;;;5041912;28;20052;-77
2023/01/09 13:11:48;;;;;;;4.35;1.20;;;;;;;;;;5042470;28;20047;-78
2023/01/09 13:14:21;;;;;;;4.72;1.20;;;;;;;;;;5043112;28;20104;-78
2023/01/09 13:16:50;;;;;;;2.47;1.08;;;;;;;;;;5042060;28;20142;-77
2023/01/09 13:19:30;;;;;;;6.22;1.50;;;;;;;;;;5043486;28;20717;-78
2023/01/09 13:21:57;;;;;;;5.72;1.80;;;;;;;;;;5041826;28;20044;-77
2023/01/09 13:24:33;;;;;;;4.63;1.52;;;;;;;;;;5060070;28;20086;-78
2023/01/09 13:27:06;;;;;;;13.35;1.45;;;;;;;;;;5054794;28;20107;-77
2023/01/09 13:29:40;;;;;;;3.72;1.05;;;;;;;;;;5042395;28;20037;-78
2023/01/09 13:32:24;;;;;;;2.88;1.13;;;;;;;;;;5040361;28;20033;-78
2023/01/09 13:34:52;;;;;;;6.80;1.27;;;;;;;;;;5041451;28;20498;-77
2023/01/09 13:37:32;;;;;;;4.35;1.38;;;;;;;;;;5041198;28;20083;-77
2023/01/09 13:40:01;;;;;;;3.90;1.40;;;;;;;;;;5040879;28;20481;-77
2023/01/09 13:42:38;;;;;;;3.83;1.33;;;;;;;;;;5043636;28;20029;-77
2023/01/09 13:45:26;;;;;;;6.45;1.25;;;;;;;;;;5036735;28;20037;-77
2023/01/09 13:48:07;;;;;;;8.05;1.17;;;;;;;;;;5038553;28;20033;-79
2023/01/09 13:50:34;;;;;;;3.05;1.00;;;;;;;;;;5006021;28;20042;-78
2023/01/09 13:53:18;;;;;;;6.50;1.80;;;;;;;;;;5002686;28;20037;-78
2023/01/09 13:55:52;;;;;;;;;;;;;;;;;;5043617;28;20136;-78
2023/01/09 13:58:21;;;;;;;6.30;1.63;;;;;;;;;;5046183;28;19913;-78
2023/01/09 14:00:48;;;;;;;4.53;1.38;;;;;;;;;;5030433;28;20049;-78
2023/01/09 14:03:18;;;;;;;4.88;1.35;;;;;;;;;;5026683;28;20025;-78
2023/01/09 14:05:43;;;;;;;4.32;1.30;;;;;;;;;;5020149;28;20610;-78
2023/01/09 14:08:17;;;;;;;5.93;1.40;;;;;;;;;;5026654;28;20124;-78
2023/01/09 14:10:42;;;;;;;5.28;1.63;;;;;;;;;;5026955;28;20032;-78
2023/01/09 14:13:14;;;;;;;7.90;1.48;;;;;;;;;;5027075;28;20038;-78
2023/01/09 14:15:43;;;;;;;5.78;1.58;;;;;;;;;;5027437;28;20057;-78
2023/01/09 14:18:22;;;;;;;3.20;0.82;;;;;;;;;;5025469;28;20046;-77
2023/01/09 14:20:57;;;;;;;9.35;1.40;;;;;;;;;;5026856;28;20446;-77
2023/01/09 14:23:25;;;;;;;7.35;1.50;;;;;;;;;;5024455;28;20135;-77
2023/01/09 14:25:52;;;;;;;4.68;1.52;;;;;;;;;;5025886;28;20029;-78
2023/01/09 14:28:31;;;;;;;3.35;1.40;;;;;;;;;;5026077;28;20140;-77
2023/01/09 14:30:57;;;;;;;3.60;1.25;;;;;;;;;;5026082;28;20038;-78
2023/01/09 14:33:23;;;;;;;5.07;1.02;;;;;;;;;;5025230;28;20069;-78
2023/01/09 14:36:13;;;;;;;6.25;1.50;;;;;;;;;;5025040;28;20443;-78
2023/01/09 14:38:52;;;;;;;4.43;1.77;;;;;;;;;;5026531;28;20426;-78
2023/01/09 14:44:27;;;;;;;4.37;1.27;;;;;;;;;;5027467;28;20039;-78
2023/01/09 14:46:53;;;;;;;4.38;1.92;;;;;;;;;;5025973;28;20268;-78
2023/01/09 14:49:39;;;;;;;10.50;2.28;;;;;;;;;;5025454;28;20041;-78
2023/01/09 14:52:22;;;;;;;4.53;1.92;;;;;;;;;;5026377;28;20053;-78
2023/01/09 14:54:49;;;;;;;4.43;1.30;;;;;;;;;;5037718;28;20045;-78
2023/01/09 14:57:32;;;;;;;5.30;1.63;;;;;;;;;;5039091;28;20530;-77
2023/01/09 14:59:59;;;;;;;7.95;1.67;;;;;;;;;;5039583;28;20037;-77
2023/01/09 15:02:27;;;;;;;5.15;1.58;;;;;;;;;;5043290;28;20041;-77
2023/01/09 15:04:57;;;;;;;4.10;1.42;;;;;;;;;;5036383;28;20041;-77
2023/01/09 15:07:33;;;;;;;4.25;1.40;;;;;;;;;;5037486;28;20033;-78
2023/01/09 15:10:03;;;;;;;5.40;1.77;;;;;;;;;;5045007;28;20044;-78
2023/01/09 15:12:30;;;;;;;8.57;1.75;;;;;;;;;;5043691;28;20550;-78
2023/01/09 15:14:58;;;;;;;3.63;1.63;;;;;;;;;;5044513;28;20162;-78
2023/01/09 15:17:27;;;;;;;7.10;1.55;;;;;;;;;;5029137;28;20133;-79
2023/01/09 15:19:54;;;;;;;6.43;1.77;;;;;;;;;;4989732;28;20117;-78